Time;durP1;ratioP1;P1;durP2;ratioP2;P2;SDS_P1;SDS_P2;PMS_P1;PMS_P2;Temp;Humidity;BMP_temperature;BMP_pressure;BME280_temperature;BME280_humidity;BME280_pressure;Samples;Min_cycle;Max_cycle;Signal;HPM_P1;HPM_P2
2022/08/28 00:01:33;;;;;;;21.47;13.23;;;18.00;99.90;;;;;;5036858;28;20181;-87
2022/08/28 00:04:00;;;;;;;18.37;13.27;;;17.90;99.90;;;;;;5034802;28;20176;-86
2022/08/28 00:06:26;;;;;;;15.80;12.10;;;17.90;99.90;;;;;;5037449;28;20401;-86
2022/08/28 00:08:51;;;;;;;17.57;12.80;;;17.90;99.90;;;;;;5041766;28;20456;-84
2022/08/28 00:11:18;;;;;;;16.63;12.17;;;17.80;99.90;;;;;;5035805;28;20432;-86
2022/08/28 00:13:44;;;;;;;17.63;13.23;;;17.80;99.90;;;;;;5032832;28;20309;-86
2022/08/28 00:16:09;;;;;;;16.97;13.20;;;17.70;99.90;;;;;;5036341;28;20565;-86
2022/08/28 00:18:35;;;;;;;16.40;12.40;;;17.70;99.90;;;;;;5036723;28;20210;-86
2022/08/28 00:21:00;;;;;;;19.43;14.03;;;17.70;99.90;;;;;;5025330;28;20179;-86
2022/08/28 00:23:26;;;;;;;18.17;14.00;;;;;;;;;;5032949;28;20182;-86
2022/08/28 00:25:52;;;;;;;15.80;12.73;;;17.70;99.90;;;;;;5016502;28;20183;-86
2022/08/28 00:28:18;;;;;;;19.40;11.90;;;17.80;99.90;;;;;;5033766;28;20551;-86
2022/08/28 00:30:47;;;;;;;17.77;13.80;;;17.70;99.90;;;;;;5022871;28;20189;-86
2022/08/28 00:33:23;;;;;;;17.20;13.20;;;17.80;99.90;;;;;;5027531;28;20418;-86
2022/08/28 00:35:50;;;;;;;16.63;13.47;;;17.80;99.90;;;;;;5032844;28;20472;-86
2022/08/28 00:38:18;;;;;;;16.43;13.60;;;17.70;99.90;;;;;;5016319;28;20491;-86
2022/08/28 00:40:45;;;;;;;20.47;13.37;;;17.70;99.90;;;;;;5017222;28;20405;-86
2022/08/28 00:43:38;;;;;;;19.90;13.90;;;17.90;99.90;;;;;;5028210;28;20501;-87
2022/08/28 00:46:10;;;;;;;22.37;15.20;;;17.70;99.90;;;;;;5023041;28;20420;-86
2022/08/28 00:48:36;;;;;;;17.90;13.93;;;17.70;99.90;;;;;;5037673;28;20496;-86
2022/08/28 00:53:48;;;;;;;21.23;15.30;;;17.50;99.90;;;;;;5037044;28;20165;-86
2022/08/28 00:56:16;;;;;;;24.53;15.60;;;17.40;99.90;;;;;;5036460;28;20913;-85
2022/08/28 00:58:43;;;;;;;22.83;15.37;;;17.40;99.90;;;;;;5037311;28;20206;-86
2022/08/28 01:01:09;;;;;;;22.83;15.53;;;17.40;99.90;;;;;;5036537;28;20901;-86
2022/08/28 01:03:36;;;;;;;22.30;15.77;;;17.40;99.90;;;;;;5037202;28;20412;-86
2022/08/28 01:06:02;;;;;;;22.77;15.43;;;17.40;99.90;;;;;;5035650;28;20409;-86
2022/08/28 01:08:29;;;;;;;19.57;14.17;;;;;;;;;;5036216;28;20447;-86
2022/08/28 01:10:56;;;;;;;35.60;17.13;;;17.40;99.90;;;;;;5036399;28;20917;-86
2022/08/28 01:13:23;;;;;;;22.80;15.10;;;17.40;99.90;;;;;;5023225;28;20478;-86
2022/08/28 01:15:50;;;;;;;24.57;17.50;;;17.40;99.90;;;;;;5033279;28;20774;-86
2022/08/28 01:18:17;;;;;;;29.87;17.73;;;17.40;99.90;;;;;;5032856;28;20479;-86
2022/08/28 01:20:49;;;;;;;26.03;16.90;;;17.40;99.90;;;;;;5033489;28;20834;-86
2022/08/28 01:23:22;;;;;;;27.70;16.70;;;17.30;99.90;;;;;;5021338;28;20499;-86
2022/08/28 01:25:47;;;;;;;28.77;16.67;;;17.30;99.90;;;;;;5029345;28;20512;-86
2022/08/28 01:28:13;;;;;;;27.37;19.27;;;18.50;99.90;;;;;;5032027;28;20484;-86
2022/08/28 01:30:43;;;;;;;25.13;16.90;;;17.30;99.90;;;;;;5032753;28;20682;-86
2022/08/28 01:33:09;;;;;;;29.43;17.67;;;17.40;99.90;;;;;;5032753;28;20651;-85
2022/08/28 01:35:39;;;;;;;27.23;19.93;;;17.40;99.90;;;;;;5017555;28;20585;-86
2022/08/28 01:38:05;;;;;;;33.13;18.97;;;;;;;;;;5032861;28;20468;-86
2022/08/28 01:40:36;;;;;;;27.23;18.47;;;17.40;99.90;;;;;;5033639;28;20416;-86
2022/08/28 01:43:24;;;;;;;30.07;17.57;;;17.40;99.90;;;;;;5026497;28;20489;-86
2022/08/28 01:45:54;;;;;;;41.30;19.97;;;17.50;99.90;;;;;;5031676;28;20495;-86
2022/08/28 01:48:22;;;;;;;34.10;22.23;;;17.40;99.90;;;;;;5029723;28;20544;-87
2022/08/28 01:50:49;;;;;;;31.90;19.53;;;;;;;;;;5031185;28;20467;-85
2022/08/28 01:53:18;;;;;;;36.00;19.37;;;17.50;99.90;;;;;;5015975;28;20472;-86
2022/08/28 01:55:44;;;;;;;28.13;20.13;;;17.60;99.90;;;;;;5022131;28;20497;-85
2022/08/28 01:58:11;;;;;;;32.80;21.97;;;17.70;99.90;;;;;;5034588;28;21035;-87
2022/08/28 02:00:38;;;;;;;30.80;20.00;;;17.70;99.90;;;;;;5034482;28;20995;-87
2022/08/28 02:03:05;;;;;;;28.70;19.43;;;17.80;99.90;;;;;;5031873;28;20802;-86
2022/08/28 02:05:31;;;;;;;34.20;18.27;;;;;;;;;;5033152;28;20424;-86
2022/08/28 02:07:58;;;;;;;30.73;17.50;;;18.00;99.90;;;;;;5031887;28;20524;-87
2022/08/28 02:10:27;;;;;;;23.97;17.70;;;18.10;99.90;;;;;;5025512;28;20433;-86
2022/08/28 02:12:54;;;;;;;24.73;17.00;;;18.10;99.90;;;;;;5039745;28;20423;-86
2022/08/28 02:15:20;;;;;;;29.43;17.43;;;18.20;99.90;;;;;;5039138;28;20461;-85
2022/08/28 02:17:46;;;;;;;27.77;19.00;;;18.20;99.90;;;;;;5038425;28;20466;-86
2022/08/28 02:20:11;;;;;;;26.70;17.50;;;18.20;99.90;;;;;;5038854;28;20778;-86
2022/08/28 02:22:37;;;;;;;36.07;20.00;;;18.30;99.90;;;;;;5039872;28;20300;-85
2022/08/28 02:25:04;;;;;;;27.20;18.27;;;18.30;99.90;;;;;;5038136;28;20174;-84
2022/08/28 02:27:29;;;;;;;24.53;17.77;;;18.40;99.90;;;;;;5037180;28;20178;-86
2022/08/28 02:29:57;;;;;;;34.57;23.00;;;18.40;99.90;;;;;;5036502;28;20457;-86
2022/08/28 02:32:26;;;;;;;34.10;20.10;;;18.30;99.90;;;;;;5032985;28;20177;-85
2022/08/28 02:34:52;;;;;;;27.50;20.00;;;18.20;99.90;;;;;;5033905;28;20425;-86
2022/08/28 02:37:19;;;;;;;37.20;19.43;;;18.10;99.90;;;;;;5026190;28;20899;-86
2022/08/28 02:39:45;;;;;;;28.57;17.90;;;;;;;;;;5020207;28;20520;-86
2022/08/28 02:42:11;;;;;;;28.77;18.07;;;;;;;;;;5021140;28;20406;-85
2022/08/28 02:44:37;;;;;;;28.40;18.43;;;;;;;;;;5019772;28;20428;-86
2022/08/28 02:47:04;;;;;;;32.07;19.23;;;18.10;99.90;;;;;;5019074;28;20872;-85
2022/08/28 02:49:30;;;;;;;26.53;18.63;;;18.00;99.90;;;;;;5039215;28;20447;-84
2022/08/28 02:51:56;;;;;;;31.30;17.73;;;18.10;99.90;;;;;;5030596;28;20433;-86
2022/08/28 02:54:22;;;;;;;25.90;18.43;;;18.10;99.90;;;;;;5038729;28;20431;-85
2022/08/28 02:56:48;;;;;;;26.23;17.60;;;18.10;99.90;;;;;;5038996;28;20421;-86
2022/08/28 02:59:14;;;;;;;27.73;16.63;;;;;;;;;;5039811;28;20439;-86
2022/08/28 03:01:39;;;;;;;27.30;18.43;;;18.20;99.90;;;;;;5038055;28;20537;-85
2022/08/28 03:04:05;;;;;;;26.23;18.27;;;;;;;;;;5043271;28;20948;-86
2022/08/28 03:06:31;;;;;;;27.37;17.60;;;18.20;99.90;;;;;;5048937;28;20169;-86
2022/08/28 03:08:57;;;;;;;28.87;17.77;;;18.20;99.90;;;;;;5060315;28;20443;-88
2022/08/28 03:11:23;;;;;;;29.23;19.80;;;;;;;;;;5042542;28;20424;-85
2022/08/28 03:13:49;;;;;;;29.87;20.50;;;18.20;99.90;;;;;;5024725;28;20188;-86
2022/08/28 03:16:15;;;;;;;26.20;20.20;;;18.30;99.90;;;;;;5035117;28;20461;-85
2022/08/28 03:18:41;;;;;;;32.47;19.60;;;18.30;99.90;;;;;;5019403;28;21069;-87
2022/08/28 03:21:08;;;;;;;27.67;18.37;;;18.40;99.90;;;;;;5038445;28;20518;-85
2022/08/28 03:23:33;;;;;;;24.13;18.67;;;18.40;99.90;;;;;;5035235;28;20186;-85
2022/08/28 03:26:03;;;;;;;25.00;16.10;;;18.40;99.90;;;;;;5040054;28;20466;-86
2022/08/28 03:28:37;;;;;;;22.00;17.17;;;18.40;99.90;;;;;;5052502;22;20209;-83
2022/08/28 03:31:04;;;;;;;26.27;16.63;;;;;;;;;;5039866;28;20488;-84
2022/08/28 03:33:30;;;;;;;25.93;17.57;;;18.40;99.90;;;;;;5044150;28;20565;-86
2022/08/28 03:35:56;;;;;;;25.57;18.30;;;18.50;99.90;;;;;;5043385;28;20421;-86
2022/08/28 03:38:22;;;;;;;27.37;17.10;;;18.50;99.90;;;;;;5033568;28;20496;-85
2022/08/28 03:40:47;;;;;;;22.53;15.27;;;18.60;99.90;;;;;;5050475;28;20420;-85
2022/08/28 03:43:16;;;;;;;22.53;15.67;;;18.60;99.90;;;;;;5053175;28;20168;-87
2022/08/28 03:45:56;;;;;;;18.70;15.27;;;18.60;99.90;;;;;;5065392;28;20181;-84
2022/08/28 03:48:23;;;;;;;18.03;15.03;;;18.60;99.90;;;;;;5060644;28;20427;-84
2022/08/28 03:50:49;;;;;;;22.10;16.73;;;;;;;;;;5062718;28;20453;-85
2022/08/28 03:53:14;;;;;;;23.00;15.67;;;18.60;99.90;;;;;;5056533;28;20427;-86
2022/08/28 03:55:41;;;;;;;22.03;15.23;;;18.60;99.90;;;;;;5053207;28;20432;-85
2022/08/28 03:58:07;;;;;;;16.43;14.73;;;;;;;;;;5056343;28;20649;-86
2022/08/28 04:00:34;;;;;;;19.63;14.60;;;;;;;;;;5063921;28;20461;-85
2022/08/28 04:02:59;;;;;;;19.67;13.57;;;18.70;99.90;;;;;;5063318;28;20403;-85
2022/08/28 04:05:27;;;;;;;18.23;13.80;;;;;;;;;;5060962;28;20888;-85
2022/08/28 04:07:53;;;;;;;23.40;13.50;;;;;;;;;;5043840;28;20181;-86
2022/08/28 04:10:19;;;;;;;20.43;13.77;;;18.60;99.90;;;;;;5055323;28;20446;-86
2022/08/28 04:12:45;;;;;;;24.40;12.37;;;18.80;99.90;;;;;;5064733;28;20448;-85
2022/08/28 04:15:11;;;;;;;15.93;12.20;;;18.70;99.90;;;;;;5060852;28;20248;-86
2022/08/28 04:17:38;;;;;;;17.17;12.70;;;18.70;99.90;;;;;;5065419;28;20474;-86
2022/08/28 04:20:07;;;;;;;19.25;12.48;;;18.70;99.90;;;;;;5062140;28;20491;-85
2022/08/28 04:22:33;;;;;;;15.70;12.10;;;;;;;;;;5056105;28;20409;-86
2022/08/28 04:24:58;;;;;;;21.57;12.37;;;18.90;99.90;;;;;;5054331;28;20628;-83
2022/08/28 04:27:24;;;;;;;18.50;13.40;;;19.00;99.90;;;;;;5057866;28;20484;-84
2022/08/28 04:29:50;;;;;;;16.13;11.87;;;19.10;99.90;;;;;;5051572;28;20697;-87
2022/08/28 04:32:15;;;;;;;15.57;13.03;;;19.10;99.90;;;;;;5062894;28;20180;-83
2022/08/28 04:34:41;;;;;;;19.00;12.43;;;19.10;99.90;;;;;;5064275;28;20177;-86
2022/08/28 04:37:06;;;;;;;14.10;11.83;;;18.90;99.90;;;;;;5060955;28;20194;-86
2022/08/28 04:39:32;;;;;;;17.43;12.23;;;18.90;99.90;;;;;;5042983;28;20204;-86
2022/08/28 04:41:58;;;;;;;17.33;11.53;;;;;;;;;;5053905;28;20197;-85
2022/08/28 04:44:24;;;;;;;17.10;13.07;;;18.80;99.90;;;;;;5048343;28;20409;-86
2022/08/28 04:46:50;;;;;;;14.80;11.60;;;18.80;99.90;;;;;;5049963;28;20431;-86
2022/08/28 04:49:16;;;;;;;16.73;10.73;;;18.90;99.90;;;;;;5067197;28;20564;-85
2022/08/28 04:51:42;;;;;;;15.67;12.17;;;18.80;99.90;;;;;;5064657;28;20172;-85
2022/08/28 04:54:09;;;;;;;16.50;10.97;;;18.80;99.90;;;;;;5053230;28;20437;-85
2022/08/28 04:56:35;;;;;;;19.70;12.23;;;18.70;99.90;;;;;;5040647;28;20428;-85
2022/08/28 04:59:02;;;;;;;17.33;10.60;;;18.60;99.90;;;;;;5053088;28;20615;-86
2022/08/28 05:01:27;;;;;;;23.70;13.87;;;18.60;99.90;;;;;;5063136;28;21009;-85
2022/08/28 05:03:56;;;;;;;17.90;11.17;;;18.60;99.90;;;;;;5064190;28;20546;-85
2022/08/28 05:06:25;;;;;;;19.50;12.40;;;18.70;99.90;;;;;;5060402;28;20169;-86
2022/08/28 05:08:52;;;;;;;22.23;12.53;;;18.60;99.90;;;;;;5056288;28;20458;-85
2022/08/28 05:11:22;;;;;;;18.90;13.37;;;18.70;99.90;;;;;;5060177;28;20436;-86
2022/08/28 05:13:49;;;;;;;16.23;12.67;;;18.80;99.90;;;;;;5054607;28;20460;-84
2022/08/28 05:16:16;;;;;;;22.90;12.43;;;18.80;99.90;;;;;;5042253;28;20480;-85
2022/08/28 05:18:42;;;;;;;26.10;12.57;;;18.80;99.90;;;;;;5046558;28;20481;-87
2022/08/28 05:21:20;;;;;;;15.27;11.13;;;18.80;99.90;;;;;;5045687;28;20422;-84
2022/08/28 05:23:52;;;;;;;15.83;12.70;;;18.90;99.90;;;;;;5057490;28;20454;-86
2022/08/28 05:26:18;;;;;;;27.17;14.17;;;18.80;99.90;;;;;;5040034;28;20509;-85
2022/08/28 05:28:45;;;;;;;22.40;12.50;;;18.70;99.90;;;;;;5049925;28;20462;-85
2022/08/28 05:31:16;;;;;;;15.93;12.40;;;18.60;99.90;;;;;;5043019;28;20443;-86
2022/08/28 05:33:43;;;;;;;15.37;12.40;;;18.60;99.90;;;;;;5044083;28;20956;-84
2022/08/28 05:36:10;;;;;;;19.27;12.90;;;18.60;99.90;;;;;;5062341;28;20460;-86
2022/08/28 05:38:35;;;;;;;16.70;12.53;;;18.70;99.90;;;;;;5055835;28;20505;-83
2022/08/28 05:41:02;;;;;;;18.03;12.67;;;;;;;;;;5055012;28;20439;-85
2022/08/28 05:43:28;;;;;;;15.90;12.50;;;18.80;99.90;;;;;;5056853;28;20176;-87
2022/08/28 05:45:59;;;;;;;21.50;12.43;;;18.90;99.90;;;;;;5047386;28;20445;-85
2022/08/28 05:48:30;;;;;;;22.53;13.30;;;18.80;99.90;;;;;;5046690;28;20929;-87
2022/08/28 05:50:57;;;;;;;16.60;13.47;;;18.80;99.90;;;;;;5056851;28;21003;-86
2022/08/28 05:53:24;;;;;;;17.90;12.27;;;18.80;99.90;;;;;;5060522;28;20428;-84
2022/08/28 05:55:50;;;;;;;22.53;12.47;;;18.80;99.90;;;;;;5060349;28;20440;-85
2022/08/28 05:58:28;;;;;;;15.83;12.30;;;18.70;99.90;;;;;;5059381;28;20481;-85
2022/08/28 06:00:54;;;;;;;18.93;11.40;;;18.70;99.90;;;;;;5054698;28;20467;-86
2022/08/28 06:03:21;;;;;;;17.20;13.57;;;18.90;99.90;;;;;;5051663;28;20424;-86
2022/08/28 06:05:54;;;;;;;16.57;11.67;;;19.00;99.90;;;;;;5061684;28;20431;-84
2022/08/28 06:08:21;;;;;;;13.40;10.83;;;19.20;99.90;;;;;;5064601;28;20514;-84
2022/08/28 06:10:49;;;;;;;17.03;11.83;;;19.20;99.90;;;;;;5055994;28;20519;-86
2022/08/28 06:13:15;;;;;;;17.13;12.67;;;19.40;99.90;;;;;;5055275;28;20430;-84
2022/08/28 06:15:42;;;;;;;14.80;11.87;;;19.50;99.90;;;;;;5058872;28;20860;-84
2022/08/28 06:18:08;;;;;;;16.70;12.20;;;19.70;99.90;;;;;;5046913;28;20258;-82
2022/08/28 06:20:40;;;;;;;15.67;11.97;;;19.70;99.90;;;;;;5048672;28;20428;-86
2022/08/28 06:23:06;;;;;;;18.57;11.40;;;19.80;99.90;;;;;;5066143;28;20185;-83
2022/08/28 06:25:36;;;;;;;16.50;11.97;;;19.80;99.90;;;;;;5061872;28;20471;-87
2022/08/28 06:28:02;;;;;;;14.20;11.10;;;19.90;99.90;;;;;;5055604;28;20436;-85
2022/08/28 06:30:28;;;;;;;13.83;10.80;;;21.00;99.90;;;;;;5054884;28;20585;-85
2022/08/28 06:32:53;;;;;;;15.00;10.80;;;20.00;99.90;;;;;;5046064;28;20197;-85
2022/08/28 06:35:19;;;;;;;16.70;12.13;;;20.10;99.90;;;;;;5051615;28;20576;-87
2022/08/28 06:37:44;;;;;;;15.10;12.40;;;20.10;99.90;;;;;;5055767;28;20704;-86
2022/08/28 06:40:10;;;;;;;18.00;11.20;;;20.10;99.90;;;;;;5060334;28;20651;-86
2022/08/28 06:42:35;;;;;;;13.20;10.03;;;20.40;99.90;;;;;;5060352;28;20180;-86
2022/08/28 06:45:01;;;;;;;18.03;10.33;;;20.60;99.90;;;;;;5057532;28;20172;-86
2022/08/28 06:47:26;;;;;;;11.90;10.00;;;20.60;99.90;;;;;;5048364;28;20193;-84
2022/08/28 06:49:53;;;;;;;17.87;9.23;;;;;;;;;;5044388;28;20208;-87
2022/08/28 06:52:19;;;;;;;14.00;9.23;;;20.70;99.90;;;;;;5049791;28;20199;-84
2022/08/28 06:54:44;;;;;;;10.90;9.10;;;20.40;99.90;;;;;;5065637;28;20704;-86
2022/08/28 06:57:10;;;;;;;19.20;11.03;;;20.40;99.90;;;;;;5061534;28;20614;-86
2022/08/28 06:59:35;;;;;;;14.40;10.70;;;20.50;99.90;;;;;;5058603;28;20228;-84
2022/08/28 07:02:03;;;;;;;16.67;10.57;;;20.50;99.90;;;;;;5057595;28;20192;-83
2022/08/28 07:04:29;;;;;;;13.90;9.33;;;21.40;99.90;;;;;;5052977;28;20280;-85
2022/08/28 07:06:54;;;;;;;18.00;9.50;;;20.50;99.90;;;;;;5039462;28;20523;-85
2022/08/28 07:09:21;;;;;;;12.73;8.80;;;20.40;99.90;;;;;;5059871;28;20196;-86
2022/08/28 07:11:46;;;;;;;12.93;9.97;;;20.30;99.90;;;;;;5063129;28;20191;-87
2022/08/28 07:14:12;;;;;;;12.07;9.83;;;20.20;99.90;;;;;;5056999;28;20435;-86
2022/08/28 07:16:38;;;;;;;14.80;9.57;;;20.20;99.90;;;;;;5055828;28;20178;-85
2022/08/28 07:19:05;;;;;;;13.30;8.13;;;20.50;99.90;;;;;;5049019;28;20215;-85
2022/08/28 07:21:33;;;;;;;14.60;9.17;;;20.70;99.90;;;;;;5050048;28;20450;-86
2022/08/28 07:23:59;;;;;;;11.73;8.57;;;20.70;99.90;;;;;;5053202;28;20434;-88
2022/08/28 07:26:26;;;;;;;15.63;9.37;;;21.10;99.90;;;;;;5042839;28;20544;-86
2022/08/28 07:28:53;;;;;;;17.20;10.20;;;21.10;99.90;;;;;;5058568;28;20295;-85
2022/08/28 07:31:24;;;;;;;10.60;9.43;;;21.20;99.90;;;;;;5058022;28;20434;-87
2022/08/28 07:33:50;;;;;;;14.77;9.40;;;21.60;99.90;;;;;;5050408;28;20502;-88
2022/08/28 07:36:19;;;;;;;14.57;8.80;;;21.80;99.90;;;;;;5044897;28;20467;-86
2022/08/28 07:38:46;;;;;;;11.70;7.67;;;22.00;99.90;;;;;;5039565;28;20209;-86
2022/08/28 07:41:14;;;;;;;11.50;7.57;;;22.20;99.90;;;;;;5055711;28;20428;-87
2022/08/28 07:46:25;;;;;;;15.83;8.50;;;22.70;99.90;;;;;;5054917;28;20422;-86
2022/08/28 07:48:50;;;;;;;11.20;9.03;;;22.90;99.90;;;;;;5050218;28;20982;-84
2022/08/28 07:51:16;;;;;;;11.43;7.80;;;23.30;99.90;;;;;;5042819;28;20193;-85
2022/08/28 07:53:42;;;;;;;14.33;9.17;;;;;;;;;;5038506;28;20184;-84
2022/08/28 07:56:07;;;;;;;13.70;8.50;;;23.10;99.90;;;;;;5058185;28;20187;-86
2022/08/28 07:58:33;;;;;;;13.97;9.10;;;23.00;99.90;;;;;;5057318;28;20571;-86
2022/08/28 08:01:00;;;;;;;19.30;8.90;;;23.10;99.90;;;;;;5057128;28;20187;-86
2022/08/28 08:03:27;;;;;;;13.87;10.23;;;23.20;99.90;;;;;;5050597;28;20201;-84
2022/08/28 08:06:03;;;;;;;11.17;8.50;;;22.90;99.90;;;;;;5050709;28;20443;-85
2022/08/28 08:08:31;;;;;;;15.30;9.90;;;22.80;99.90;;;;;;5041253;28;20446;-84
2022/08/28 08:11:06;;;;;;;10.30;8.37;;;23.70;99.90;;;;;;5045792;28;20961;-85
2022/08/28 08:13:33;;;;;;;12.93;8.53;;;22.90;99.90;;;;;;5059980;28;20435;-86
2022/08/28 08:16:05;;;;;;;16.57;10.00;;;23.30;99.90;;;;;;5053169;28;20448;-87
2022/08/28 08:18:32;;;;;;;13.30;9.20;;;;;;;;;;5055831;28;20525;-87
2022/08/28 08:20:58;;;;;;;12.20;8.80;;;23.20;99.90;;;;;;5045329;28;20437;-84
2022/08/28 08:23:24;;;;;;;15.53;8.87;;;23.30;99.90;;;;;;5043284;28;20495;-86
2022/08/28 08:25:54;;;;;;;11.07;9.87;;;23.40;99.90;;;;;;5044114;28;20791;-83
2022/08/28 08:28:21;;;;;;;8.23;7.43;;;23.80;99.90;;;;;;5065775;28;20406;-84
2022/08/28 08:30:47;;;;;;;10.50;8.23;;;23.80;99.90;;;;;;5066646;28;20442;-86
2022/08/28 08:33:12;;;;;;;12.63;10.10;;;24.10;99.90;;;;;;5063323;28;20459;-86
2022/08/28 08:35:39;;;;;;;12.07;8.87;;;;;;;;;;5057186;28;20415;-86
2022/08/28 08:38:05;;;;;;;14.53;8.30;;;24.20;99.90;;;;;;5048046;28;20258;-84
2022/08/28 08:40:32;;;;;;;13.37;8.47;;;24.40;99.90;;;;;;5040090;28;20478;-84
2022/08/28 08:42:58;;;;;;;13.80;10.07;;;25.00;99.90;;;;;;5058546;28;20427;-85
2022/08/28 08:45:25;;;;;;;16.83;10.70;;;24.90;99.90;;;;;;5064263;28;20433;-86
2022/08/28 08:47:54;;;;;;;13.30;10.07;;;25.00;99.90;;;;;;5058617;28;20412;-89
2022/08/28 08:50:20;;;;;;;14.10;9.23;;;;;;;;;;5054544;28;20518;-87
2022/08/28 08:52:51;;;;;;;16.10;9.23;;;25.10;99.90;;;;;;5044251;28;20561;-86
2022/08/28 08:55:30;;;;;;;15.83;10.03;;;26.50;99.90;;;;;;5043855;28;20442;-87
2022/08/28 08:58:06;;;;;;;12.43;9.40;;;25.50;99.90;;;;;;5038801;28;20459;-87
2022/08/28 09:00:41;;;;;;;11.73;8.60;;;26.00;99.90;;;;;;5062262;28;21055;-85
2022/08/28 09:03:40;;;;;;;11.70;8.50;;;25.90;99.90;;;;;;5041665;28;20427;-84
2022/08/28 09:06:17;;;;;;;12.73;10.13;;;26.60;99.90;;;;;;5052100;28;20487;-86
2022/08/28 09:08:51;;;;;;;12.33;9.57;;;26.20;99.90;;;;;;5047279;28;20597;-84
2022/08/28 09:11:25;;;;;;;14.57;10.03;;;25.40;99.90;;;;;;5043045;28;20422;-84
2022/08/28 09:14:09;;;;;;;14.03;9.23;;;26.00;99.90;;;;;;5048861;28;20421;-85
2022/08/28 09:16:38;;;;;;;20.13;9.00;;;26.50;99.90;;;;;;5042940;28;20443;-86
2022/08/28 09:19:05;;;;;;;12.37;8.43;;;28.30;99.90;;;;;;5057523;28;20467;-85
2022/08/28 09:21:37;;;;;;;10.60;8.80;;;28.80;99.90;;;;;;5056333;28;20427;-86
2022/08/28 09:24:07;;;;;;;13.73;9.00;;;29.00;99.90;;;;;;5043227;28;20433;-85
2022/08/28 09:26:33;;;;;;;18.30;9.83;;;28.90;99.90;;;;;;5046435;28;20426;-85
2022/08/28 09:29:04;;;;;;;15.07;10.00;;;28.30;99.90;;;;;;5040663;28;20447;-88
2022/08/28 09:31:37;;;;;;;12.20;10.13;;;27.60;99.90;;;;;;5038723;28;20924;-86
2022/08/28 09:34:28;;;;;;;14.50;10.77;;;27.10;99.90;;;;;;5038817;28;20410;-86
2022/08/28 09:36:57;;;;;;;13.07;10.10;;;26.70;99.90;;;;;;5039064;28;20433;-85
2022/08/28 09:39:34;;;;;;;13.90;9.90;;;26.40;99.90;;;;;;5040223;28;20464;-86
2022/08/28 09:45:19;;;;;;;15.80;9.53;;;25.90;99.90;;;;;;5040714;28;20809;-85
2022/08/28 09:47:52;;;;;;;11.43;9.80;;;25.50;99.90;;;;;;5038531;28;20563;-85
2022/08/28 09:50:29;;;;;;;18.93;12.53;;;25.30;99.90;;;;;;5040121;28;20443;-86
2022/08/28 09:53:12;;;;;;;16.40;11.90;;;24.60;99.90;;;;;;5040086;28;20464;-85
2022/08/28 09:56:07;;;;;;;14.60;10.33;;;24.60;99.90;;;;;;5038970;28;20977;-87
2022/08/28 09:58:35;;;;;;;12.47;10.30;;;25.00;99.90;;;;;;5040652;28;20465;-86
2022/08/28 10:01:28;;;;;;;21.93;10.30;;;25.20;99.90;;;;;;5038510;28;20444;-85
2022/08/28 10:04:05;;;;;;;14.30;9.30;;;25.50;99.90;;;;;;5040500;28;20397;-86
2022/08/28 10:06:33;;;;;;;13.53;10.87;;;25.90;99.90;;;;;;5055706;28;20418;-86
2022/08/28 10:09:44;;;;;;;10.57;9.07;;;26.40;99.90;;;;;;5038913;28;20436;-86
2022/08/28 10:12:24;;;;;;;10.60;9.50;;;27.30;99.90;;;;;;5038342;28;20915;-85
2022/08/28 10:15:04;;;;;;;18.07;9.83;;;27.80;99.90;;;;;;5040759;28;20400;-87
2022/08/28 10:17:57;;;;;;;16.80;9.03;;;29.10;99.90;;;;;;5054961;28;20455;-86
2022/08/28 10:20:44;;;;;;;10.33;8.80;;;29.30;99.90;;;;;;5054706;28;20428;-87
2022/08/28 10:23:34;;;;;;;12.20;8.83;;;28.00;99.90;;;;;;5039074;28;20401;-86
2022/08/28 10:26:29;;;;;;;12.83;9.53;;;27.40;99.90;;;;;;5040055;28;20430;-86
2022/08/28 10:29:08;;;;;;;11.30;9.13;;;27.50;99.90;;;;;;5055541;28;20522;-86
2022/08/28 10:32:02;;;;;;;15.70;10.13;;;27.60;99.90;;;;;;5038133;28;20430;-85
2022/08/28 10:34:59;;;;;;;10.97;9.87;;;27.20;99.90;;;;;;5037565;28;20413;-85
2022/08/28 10:37:43;;;;;;;13.37;10.47;;;26.80;99.90;;;;;;5037579;28;20463;-86
2022/08/28 10:40:24;;;;;;;11.60;8.83;;;26.80;99.90;;;;;;5054514;28;20502;-86
2022/08/28 10:42:59;;;;;;;13.70;9.87;;;27.30;99.90;;;;;;5038332;28;20412;-85
2022/08/28 10:45:27;;;;;;;13.17;9.70;;;27.10;99.90;;;;;;5037704;28;20417;-87
2022/08/28 10:48:05;;;;;;;13.90;9.23;;;27.00;99.90;;;;;;5035852;28;20406;-86
2022/08/28 10:50:45;;;;;;;11.37;8.70;;;26.70;99.90;;;;;;5037640;28;20439;-86
2022/08/28 10:53:27;;;;;;;10.07;8.50;;;26.80;99.90;;;;;;5037937;28;20477;-86
2022/08/28 10:56:14;;;;;;;11.10;7.60;;;27.10;99.90;;;;;;5036828;28;20527;-87
2022/08/28 10:58:40;;;;;;;10.97;9.17;;;27.60;99.90;;;;;;5038276;28;20460;-85
2022/08/28 11:01:11;;;;;;;9.33;8.43;;;29.10;99.90;;;;;;5036386;28;20444;-87
2022/08/28 11:03:49;;;;;;;10.80;8.33;;;29.10;99.90;;;;;;5036092;28;20419;-84
2022/08/28 11:06:25;;;;;;;8.90;8.00;;;29.30;99.90;;;;;;5035889;28;20841;-85
2022/08/28 11:08:55;;;;;;;11.63;8.93;;;28.40;99.90;;;;;;5036617;28;20444;-85
2022/08/28 11:11:45;;;;;;;10.10;9.10;;;28.40;99.90;;;;;;5036134;28;20395;-87
2022/08/28 11:14:40;;;;;;;12.27;8.73;;;27.70;99.90;;;;;;5035984;28;20963;-86
2022/08/28 11:17:31;;;;;;;9.67;8.17;;;27.30;99.90;;;;;;5036009;28;20435;-86
2022/08/28 11:20:16;;;;;;;10.57;7.70;;;27.50;99.90;;;;;;5036034;28;20449;-86
2022/08/28 11:22:48;;;;;;;10.23;7.23;;;27.40;99.90;;;;;;5035897;28;20416;-85
2022/08/28 11:25:42;;;;;;;10.70;8.10;;;27.50;99.90;;;;;;5052418;28;20500;-88
2022/08/28 11:28:18;;;;;;;9.40;7.60;;;27.60;99.90;;;;;;5036183;28;20830;-85
2022/08/28 11:30:47;;;;;;;9.23;7.17;;;27.00;99.90;;;;;;5051528;28;20439;-85
2022/08/28 11:33:42;;;;;;;10.70;8.47;;;27.00;99.90;;;;;;5035604;28;20425;-85
2022/08/28 11:36:19;;;;;;;14.13;9.30;;;26.90;99.90;;;;;;5034600;28;20415;-86
2022/08/28 11:38:45;;;;;;;11.23;8.43;;;26.70;99.90;;;;;;5051383;28;20842;-87
2022/08/28 11:41:26;;;;;;;12.57;8.40;;;26.40;99.90;;;;;;5050741;28;20414;-86
2022/08/28 11:44:10;;;;;;;10.47;8.70;;;26.30;99.90;;;;;;5050807;28;20440;-87
2022/08/28 11:46:43;;;;;;;14.43;9.23;;;25.60;99.90;;;;;;5052711;28;20454;-85
2022/08/28 11:49:32;;;;;;;12.20;8.60;;;25.80;99.90;;;;;;5036622;28;20500;-84
2022/08/28 11:52:08;;;;;;;7.97;7.17;;;26.20;99.90;;;;;;5037908;28;20400;-86
2022/08/28 11:54:42;;;;;;;10.13;8.20;;;26.60;99.90;;;;;;5053249;28;20414;-85
2022/08/28 11:57:16;;;;;;;8.80;7.80;;;26.70;99.90;;;;;;5053664;28;20415;-86
2022/08/28 12:00:07;;;;;;;8.77;7.87;;;26.70;99.90;;;;;;5036361;28;20429;-87
2022/08/28 12:02:39;;;;;;;11.57;7.17;;;26.40;99.90;;;;;;5053138;28;20832;-86
2022/08/28 12:05:11;;;;;;;13.17;7.70;;;26.70;99.90;;;;;;5052660;28;20508;-86
2022/08/28 12:07:39;;;;;;;8.00;7.17;;;26.90;99.90;;;;;;5036599;28;20483;-86
2022/08/28 12:10:25;;;;;;;11.77;8.20;;;27.20;99.90;;;;;;5035466;28;20467;-84
2022/08/28 12:13:00;;;;;;;9.43;7.73;;;27.30;99.90;;;;;;5051691;28;20419;-86
2022/08/28 12:15:26;;;;;;;10.20;7.87;;;27.00;99.90;;;;;;5036920;28;20894;-87
2022/08/28 12:18:10;;;;;;;10.80;6.93;;;26.20;99.90;;;;;;5052763;28;20455;-85
2022/08/28 12:20:39;;;;;;;12.73;7.23;;;26.10;99.90;;;;;;5037569;28;20153;-86
2022/08/28 12:23:39;;;;;;;8.83;7.93;;;24.20;99.90;;;;;;5052293;28;20468;-83
2022/08/28 12:26:07;;;;;;;8.67;6.40;;;25.90;99.90;;;;;;5027606;28;20418;-86
2022/08/28 12:28:43;;;;;;;8.23;6.43;;;26.00;99.90;;;;;;5035130;28;20443;-86
2022/08/28 12:34:41;;;;;;;13.63;6.30;;;26.50;99.90;;;;;;5035904;28;20814;-83
2022/08/28 12:37:18;;;;;;;6.67;5.97;;;26.40;99.90;;;;;;5052167;28;20499;-86
2022/08/28 12:39:44;;;;;;;8.03;6.30;;;26.70;99.90;;;;;;5052007;28;20809;-86
2022/08/28 12:42:17;;;;;;;7.53;6.13;;;27.20;99.90;;;;;;5050774;28;20414;-86
2022/08/28 12:44:43;;;;;;;6.97;6.27;;;27.20;99.90;;;;;;5034481;28;20184;-86
2022/08/28 12:47:15;;;;;;;6.40;5.80;;;27.10;99.90;;;;;;5035488;28;20424;-85
2022/08/28 12:49:40;;;;;;;9.10;6.33;;;27.20;99.90;;;;;;5050534;28;20523;-85
2022/08/28 12:52:11;;;;;;;7.03;5.73;;;27.50;99.90;;;;;;5034170;28;20651;-84
2022/08/28 12:54:37;;;;;;;7.60;5.67;;;27.50;99.90;;;;;;5035213;28;20162;-85
2022/08/28 12:57:09;;;;;;;5.93;5.30;;;27.60;99.90;;;;;;5034783;28;20465;-84
2022/08/28 12:59:36;;;;;;;8.67;6.87;;;27.40;99.90;;;;;;5034030;28;20441;-85
2022/08/28 13:02:05;;;;;;;7.47;6.87;;;28.10;99.90;;;;;;5034498;28;20409;-86
2022/08/28 13:04:40;;;;;;;7.13;6.43;;;27.00;99.90;;;;;;5034130;28;20566;-85
2022/08/28 13:07:11;;;;;;;10.33;7.03;;;27.10;99.90;;;;;;5034526;28;20411;-85
2022/08/28 13:09:37;;;;;;;11.80;7.30;;;27.30;99.90;;;;;;5033239;28;20432;-87